createdAt,value
2022-08-26T00:00:04.882Z,9.13
2022-08-26T00:05:42.299Z,10.57
2022-08-26T00:10:48.231Z,8.07
2022-08-26T00:15:55.543Z,7.13
2022-08-26T00:21:06.171Z,7.63
2022-08-26T00:26:12.305Z,6.20
2022-08-26T00:31:18.244Z,6.13
2022-08-26T00:36:29.728Z,7.13
2022-08-26T00:41:35.581Z,6.13
2022-08-26T00:46:47.544Z,9.20
2022-08-26T00:51:58.211Z,8.68
2022-08-26T00:57:16.445Z,6.88
2022-08-26T01:02:22.919Z,11.37
2022-08-26T01:07:34.835Z,8.05
2022-08-26T01:12:44.734Z,7.47
2022-08-26T01:17:50.721Z,7.80
2022-08-26T01:23:04.182Z,7.15
2022-08-26T01:28:13.303Z,13.23
2022-08-26T01:33:24.191Z,12.17
2022-08-26T01:38:32.498Z,11.73
2022-08-26T01:43:41.375Z,18.33
2022-08-26T01:48:48.660Z,13.70
2022-08-26T01:54:01.046Z,13.27
2022-08-26T01:59:12.807Z,12.60
2022-08-26T02:04:25.367Z,15.23
2022-08-26T02:09:33.638Z,14.43
2022-08-26T02:14:51.300Z,16.17
2022-08-26T02:19:57.193Z,21.17
2022-08-26T02:25:14.430Z,21.67
2022-08-26T02:30:23.078Z,20.13
2022-08-26T02:35:29.766Z,15.70
2022-08-26T02:40:41.823Z,18.25
2022-08-26T02:45:47.302Z,17.17
2022-08-26T02:50:53.616Z,19.90
2022-08-26T02:56:01.875Z,18.73
2022-08-26T03:01:09.381Z,20.33
2022-08-26T03:06:14.970Z,15.57
2022-08-26T03:11:25.542Z,22.73
2022-08-26T03:16:35.551Z,22.70
2022-08-26T03:21:41.575Z,17.53
2022-08-26T03:26:52.862Z,20.13
2022-08-26T03:31:58.450Z,17.13
2022-08-26T03:37:04.515Z,19.07
2022-08-26T03:42:15.198Z,17.40
2022-08-26T03:47:21.997Z,21.98
2022-08-26T03:52:27.487Z,17.97
2022-08-26T03:57:35.781Z,18.00
2022-08-26T04:02:42.042Z,24.13
2022-08-26T04:07:47.835Z,16.63
2022-08-26T04:12:58.706Z,27.37
2022-08-26T04:18:04.479Z,19.13
2022-08-26T04:23:10.216Z,18.98
2022-08-26T04:28:18.611Z,14.87
2022-08-26T04:33:32.267Z,22.23
2022-08-26T04:38:39.057Z,14.27
2022-08-26T04:43:49.101Z,17.67
2022-08-26T04:48:57.103Z,19.35
2022-08-26T04:54:03.400Z,15.75
2022-08-26T04:59:17.047Z,12.57
2022-08-26T05:04:24.126Z,12.50
2022-08-26T05:09:31.482Z,17.67
2022-08-26T05:14:41.745Z,15.85
2022-08-26T05:19:47.255Z,13.33
2022-08-26T05:24:53.091Z,12.05
2022-08-26T05:30:02.660Z,10.70
2022-08-26T05:35:10.120Z,14.20
2022-08-26T05:40:15.912Z,12.25
2022-08-26T05:45:24.708Z,20.40
2022-08-26T05:50:30.610Z,21.47
2022-08-26T05:55:36.094Z,20.00
2022-08-26T06:00:49.163Z,13.95
2022-08-26T06:05:55.395Z,9.55
2022-08-26T06:11:05.361Z,13.93
2022-08-26T06:16:16.213Z,13.93
2022-08-26T06:21:24.095Z,14.35
2022-08-26T06:26:29.953Z,13.33
2022-08-26T06:31:39.997Z,13.07
2022-08-26T06:36:47.904Z,15.15
2022-08-26T06:41:53.874Z,12.20
2022-08-26T06:47:03.351Z,15.03
2022-08-26T06:52:09.269Z,9.55
2022-08-26T06:57:16.779Z,14.98
2022-08-26T07:02:28.574Z,17.83
2022-08-26T07:07:35.889Z,15.13
2022-08-26T07:12:42.119Z,12.95
2022-08-26T07:17:55.659Z,14.87
2022-08-26T07:23:02.171Z,16.77
2022-08-26T07:28:07.937Z,16.73
2022-08-26T07:33:19.323Z,16.13
2022-08-26T07:38:24.894Z,13.73
2022-08-26T07:43:30.595Z,16.52
2022-08-26T07:48:39.451Z,17.45
2022-08-26T07:53:53.041Z,13.40
2022-08-26T07:58:58.863Z,18.30
2022-08-26T08:04:08.195Z,13.05
2022-08-26T08:09:17.105Z,19.23
2022-08-26T08:14:23.307Z,23.23
2022-08-26T08:19:37.005Z,16.27
2022-08-26T08:24:44.484Z,12.43
2022-08-26T08:29:50.192Z,11.53
2022-08-26T08:34:58.908Z,12.00
2022-08-26T08:40:09.888Z,12.30
2022-08-26T08:45:20.397Z,10.00
2022-08-26T08:50:33.910Z,11.75
2022-08-26T08:55:50.393Z,14.02
2022-08-26T09:01:05.017Z,14.03
2022-08-26T09:06:17.439Z,9.60
2022-08-26T09:11:23.344Z,10.70
2022-08-26T09:16:39.779Z,8.33
2022-08-26T09:21:57.588Z,10.80
2022-08-26T09:27:02.951Z,9.23
2022-08-26T09:32:24.460Z,12.65
2022-08-26T09:43:22.909Z,13.75
2022-08-26T09:48:32.479Z,10.95
2022-08-26T09:53:57.665Z,12.43
2022-08-26T09:59:06.455Z,7.53
2022-08-26T10:04:16.423Z,10.23
2022-08-26T10:09:29.790Z,9.63
2022-08-26T10:14:37.387Z,13.13
2022-08-26T10:19:57.078Z,8.13
2022-08-26T10:25:11.111Z,8.80
2022-08-26T10:30:20.938Z,16.20
2022-08-26T10:35:27.177Z,9.82
2022-08-26T10:40:45.350Z,11.23
2022-08-26T10:45:57.334Z,8.10
2022-08-26T10:51:05.685Z,8.77
2022-08-26T10:56:25.436Z,11.15
2022-08-26T11:01:52.444Z,13.33
2022-08-26T11:07:28.272Z,13.40
2022-08-26T11:13:07.239Z,9.60
2022-08-26T11:18:14.778Z,12.45
2022-08-26T11:23:43.293Z,13.23
2022-08-26T11:28:53.605Z,13.23
2022-08-26T11:34:03.074Z,10.65
2022-08-26T11:39:18.668Z,9.70
2022-08-26T11:44:29.934Z,8.43
2022-08-26T11:49:35.755Z,7.00
2022-08-26T11:54:42.202Z,7.57
2022-08-26T11:59:50.247Z,7.80
2022-08-26T12:04:57.698Z,8.80
2022-08-26T12:10:04.835Z,5.85
2022-08-26T12:15:18.632Z,8.73
2022-08-26T12:20:46.199Z,6.22
2022-08-26T12:25:53.768Z,9.50
2022-08-26T12:31:07.301Z,7.10
2022-08-26T12:36:13.437Z,7.93
2022-08-26T12:41:44.881Z,6.63
2022-08-26T12:46:53.197Z,5.60
2022-08-26T12:51:58.769Z,6.20
2022-08-26T12:57:12.930Z,10.52
2022-08-26T13:02:41.741Z,4.60
2022-08-26T13:07:47.065Z,4.20
2022-08-26T13:12:52.643Z,5.85
2022-08-26T13:18:01.028Z,7.53
2022-08-26T13:23:06.432Z,4.13
2022-08-26T13:28:11.849Z,7.53
2022-08-26T13:33:22.774Z,4.47
2022-08-26T13:38:33.254Z,10.30
2022-08-26T13:43:39.943Z,3.97
2022-08-26T13:48:47.870Z,6.13
2022-08-26T13:53:53.897Z,8.05
2022-08-26T13:59:01.362Z,6.87
2022-08-26T14:04:10.200Z,5.05
2022-08-26T14:09:16.055Z,7.18
2022-08-26T14:14:21.420Z,5.17
2022-08-26T14:19:30.249Z,5.47
2022-08-26T14:24:35.889Z,4.10
2022-08-26T14:29:42.123Z,6.70
2022-08-26T14:34:50.415Z,5.33
2022-08-26T14:39:57.079Z,5.97
2022-08-26T14:45:05.661Z,7.20
2022-08-26T14:50:15.246Z,4.53
2022-08-26T14:55:21.001Z,4.50
2022-08-26T15:00:26.494Z,6.32
2022-08-26T15:05:36.065Z,6.17
2022-08-26T15:10:42.079Z,6.10
2022-08-26T15:15:47.657Z,6.00
2022-08-26T15:20:56.305Z,5.13
2022-08-26T15:26:01.961Z,8.07
2022-08-26T15:31:08.816Z,4.93
2022-08-26T15:36:16.915Z,5.40
2022-08-26T15:41:22.487Z,4.23
2022-08-26T15:46:28.248Z,7.03
2022-08-26T15:51:45.160Z,2.63
2022-08-26T15:56:53.137Z,5.83
2022-08-26T16:01:59.384Z,7.90
2022-08-26T16:07:07.762Z,6.35
2022-08-26T16:17:19.512Z,3.90
2022-08-26T16:22:28.581Z,5.10
2022-08-26T16:27:36.305Z,3.10
2022-08-26T16:32:43.205Z,7.80
2022-08-26T16:37:51.389Z,3.78
2022-08-26T16:42:57.503Z,2.40
2022-08-26T16:48:03.127Z,5.10
2022-08-26T16:58:37.008Z,5.15
2022-08-26T17:03:42.845Z,3.43
2022-08-26T17:08:51.477Z,4.83
2022-08-26T17:13:57.517Z,3.28
2022-08-26T17:19:04.751Z,4.90
2022-08-26T17:24:12.984Z,2.87
2022-08-26T17:29:18.485Z,4.80
2022-08-26T17:34:24.919Z,4.07
2022-08-26T17:39:33.157Z,3.17
2022-08-26T17:44:38.694Z,4.72
2022-08-26T17:49:44.499Z,3.80
2022-08-26T17:54:55.862Z,3.20
2022-08-26T18:00:01.204Z,5.73
2022-08-26T18:05:14.422Z,4.38
2022-08-26T18:10:25.753Z,4.07
2022-08-26T18:15:31.385Z,6.53
2022-08-26T18:20:37.541Z,4.60
2022-08-26T18:25:47.263Z,3.95
2022-08-26T18:30:52.700Z,2.70
2022-08-26T18:35:59.013Z,5.18
2022-08-26T18:41:07.924Z,3.63
2022-08-26T18:46:13.987Z,3.47
2022-08-26T18:51:20.715Z,2.33
2022-08-26T18:56:29.945Z,5.40
2022-08-26T19:01:38.049Z,4.50
2022-08-26T19:06:44.394Z,3.27
2022-08-26T19:11:52.825Z,4.00
2022-08-26T19:16:58.264Z,5.75
2022-08-26T19:22:03.875Z,3.33
2022-08-26T19:27:14.930Z,5.55
2022-08-26T19:32:24.448Z,4.10
2022-08-26T19:37:29.969Z,2.10
2022-08-26T19:42:38.156Z,3.57
2022-08-26T19:47:43.867Z,3.38
2022-08-26T19:52:49.771Z,2.15
2022-08-26T19:57:57.886Z,2.43
2022-08-26T20:03:03.796Z,3.67
2022-08-26T20:08:11.660Z,4.07
2022-08-26T20:13:30.894Z,2.80
2022-08-26T20:18:48.815Z,3.67
2022-08-26T20:23:54.765Z,6.10
2022-08-26T20:29:02.952Z,4.13
2022-08-26T20:34:08.664Z,2.70
2022-08-26T20:39:14.708Z,3.13
2022-08-26T20:44:22.903Z,2.85
2022-08-26T20:49:29.867Z,5.73
2022-08-26T20:54:35.452Z,4.30
2022-08-26T20:59:44.378Z,3.42
2022-08-26T21:04:50.023Z,5.10
2022-08-26T21:09:56.020Z,4.78
2022-08-26T21:15:04.324Z,3.88
2022-08-26T21:20:11.684Z,3.13
2022-08-26T21:25:17.393Z,5.57
2022-08-26T21:30:26.274Z,5.47
2022-08-26T21:35:31.853Z,8.57
2022-08-26T21:40:37.235Z,7.10
2022-08-26T21:45:45.909Z,6.95
2022-08-26T21:50:51.270Z,8.52
2022-08-26T21:55:56.768Z,15.20
2022-08-26T22:01:05.290Z,15.82
2022-08-26T22:06:11.144Z,11.77
2022-08-26T22:11:17.968Z,9.47
2022-08-26T22:16:28.923Z,9.70
2022-08-26T22:21:35.947Z,5.95
2022-08-26T22:26:42.104Z,3.60
2022-08-26T22:31:50.430Z,3.10
2022-08-26T22:36:56.184Z,2.63
2022-08-26T22:42:01.750Z,4.63
2022-08-26T22:47:10.073Z,3.33
2022-08-26T22:52:15.777Z,5.13
2022-08-26T22:57:21.921Z,7.88
2022-08-26T23:02:30.166Z,5.83
2022-08-26T23:07:36.393Z,13.03
2022-08-26T23:12:42.175Z,5.38
2022-08-26T23:17:58.384Z,7.47
2022-08-26T23:23:05.094Z,4.07
2022-08-26T23:28:10.544Z,5.93
2022-08-26T23:33:19.065Z,8.18
2022-08-26T23:38:25.066Z,4.33
2022-08-26T23:43:31.229Z,4.90
2022-08-26T23:48:39.846Z,5.22
2022-08-26T23:53:45.928Z,5.57
2022-08-26T23:58:51.667Z,9.23
